Time;durP1;ratioP1;P1;durP2;ratioP2;P2;SDS_P1;SDS_P2;PMS_P1;PMS_P2;Temp;Humidity;BMP_temperature;BMP_pressure;BME280_temperature;BME280_humidity;BME280_pressure;Samples;Min_cycle;Max_cycle;Signal;HPM_P1;HPM_P2
2022/04/24 00:01:35;;;;;;;7.53;2.95;;;;;;;;;;5032072;28;20033;-60
2022/04/24 00:04:00;;;;;;;9.30;3.63;;;;;;;;;;5032097;28;20052;-59
2022/04/24 00:06:26;;;;;;;6.82;3.05;;;;;;;;;;5032095;28;20029;-61
2022/04/24 00:08:51;;;;;;;11.63;3.10;;;;;;;;;;5032161;28;20374;-61
2022/04/24 00:11:17;;;;;;;10.88;3.90;;;;;;;;;;5031574;28;20475;-60
2022/04/24 00:13:43;;;;;;;9.68;3.60;;;;;;;;;;5031226;28;20048;-60
2022/04/24 00:16:09;;;;;;;8.77;3.15;;;;;;;;;;5031747;28;20021;-60
2022/04/24 00:18:37;;;;;;;7.20;3.28;;;;;;;;;;5031832;28;20540;-60
2022/04/24 00:21:04;;;;;;;8.98;3.25;;;;;;;;;;5031891;28;20034;-61
2022/04/24 00:23:31;;;;;;;5.35;2.90;;;;;;;;;;5031497;28;20084;-61
2022/04/24 00:25:56;;;;;;;9.02;2.78;;;;;;;;;;5031886;28;20033;-61
2022/04/24 00:28:22;;;;;;;6.07;2.85;;;;;;;;;;5031562;28;20060;-61
2022/04/24 00:30:47;;;;;;;6.75;2.92;;;;;;;;;;5031971;28;20467;-61
2022/04/24 00:33:13;;;;;;;7.03;3.08;;;;;;;;;;5014178;28;20047;-61
2022/04/24 00:35:38;;;;;;;8.55;3.38;;;;;;;;;;5031804;28;20425;-61
2022/04/24 00:38:04;;;;;;;11.40;3.63;;;;;;;;;;5031730;28;20033;-61
2022/04/24 00:40:29;;;;;;;6.78;3.28;;;;;;;;;;5031711;28;20029;-61
2022/04/24 00:42:55;;;;;;;8.68;3.40;;;;;;;;;;5031446;28;20029;-61
2022/04/24 00:45:20;;;;;;;7.45;3.28;;;;;;;;;;5031832;28;20083;-61
2022/04/24 00:47:46;;;;;;;10.43;3.35;;;;;;;;;;5031685;28;20029;-61
2022/04/24 00:50:12;;;;;;;8.70;3.45;;;;;;;;;;5031674;28;20067;-61
2022/04/24 00:52:38;;;;;;;6.55;3.45;;;;;;;;;;5031659;28;20449;-60
2022/04/24 00:55:07;;;;;;;8.65;3.30;;;;;;;;;;5031536;28;20030;-61
2022/04/24 00:57:33;;;;;;;10.68;3.70;;;;;;;;;;5031418;28;20026;-61
2022/04/24 00:59:59;;;;;;;9.30;3.25;;;;;;;;;;5031651;28;20466;-61
2022/04/24 01:02:24;;;;;;;10.50;4.22;;;;;;;;;;5031623;28;20040;-61
2022/04/24 01:04:50;;;;;;;7.63;3.97;;;;;;;;;;5031529;28;20025;-61
2022/04/24 01:07:16;;;;;;;8.10;3.80;;;;;;;;;;5032276;28;20021;-61
2022/04/24 01:09:41;;;;;;;7.53;3.70;;;;;;;;;;5035508;28;20048;-61
2022/04/24 01:12:08;;;;;;;8.43;3.67;;;;;;;;;;5034807;28;20018;-61
2022/04/24 01:14:34;;;;;;;7.97;4.10;;;;;;;;;;5034523;28;20025;-61
2022/04/24 01:17:01;;;;;;;7.00;3.40;;;;;;;;;;5034596;28;20029;-60
2022/04/24 01:19:28;;;;;;;9.30;4.22;;;;;;;;;;5034500;28;20021;-60
2022/04/24 01:21:54;;;;;;;10.02;4.38;;;;;;;;;;5034698;28;20105;-61
2022/04/24 01:24:22;;;;;;;6.85;4.07;;;;;;;;;;5034744;28;20025;-60
2022/04/24 01:26:47;;;;;;;10.43;4.90;;;;;;;;;;5034926;28;20025;-61
2022/04/24 01:29:14;;;;;;;8.00;4.28;;;;;;;;;;5035186;28;20095;-61
2022/04/24 01:31:40;;;;;;;8.80;4.22;;;;;;;;;;5035007;28;20028;-61
2022/04/24 01:34:06;;;;;;;9.50;4.50;;;;;;;;;;5034902;28;20036;-60
2022/04/24 01:36:32;;;;;;;12.43;4.55;;;;;;;;;;5034753;28;20382;-59
2022/04/24 01:38:58;;;;;;;8.63;4.00;;;;;;;;;;5034768;28;20121;-61
2022/04/24 01:41:23;;;;;;;7.75;4.07;;;;;;;;;;5034689;28;20030;-61
2022/04/24 01:43:50;;;;;;;6.80;4.28;;;;;;;;;;5034126;28;20789;-60
2022/04/24 01:46:15;;;;;;;7.72;4.60;;;;;;;;;;5034042;28;20027;-61
2022/04/24 01:48:41;;;;;;;8.05;4.20;;;;;;;;;;5034225;28;20096;-61
2022/04/24 01:51:08;;;;;;;8.02;4.45;;;;;;;;;;5034377;28;20026;-61
2022/04/24 01:53:35;;;;;;;11.48;5.10;;;;;;;;;;5034477;28;20025;-61
2022/04/24 01:56:04;;;;;;;10.70;5.53;;;;;;;;;;5034451;28;20037;-61
2022/04/24 01:58:30;;;;;;;10.43;5.22;;;;;;;;;;5034018;28;20058;-61
2022/04/24 02:00:56;;;;;;;11.40;5.47;;;;;;;;;;5033836;28;20482;-61
2022/04/24 02:03:22;;;;;;;10.38;5.30;;;;;;;;;;5033922;28;20025;-61
2022/04/24 02:05:48;;;;;;;9.90;5.18;;;;;;;;;;5033991;28;20025;-61
2022/04/24 02:08:13;;;;;;;13.45;5.35;;;;;;;;;;5033976;28;20022;-60
2022/04/24 02:10:39;;;;;;;10.07;6.00;;;;;;;;;;5034478;28;20348;-61
2022/04/24 02:13:05;;;;;;;9.68;5.43;;;;;;;;;;5034302;28;20037;-61
2022/04/24 02:15:31;;;;;;;8.30;4.93;;;;;;;;;;5034233;28;20414;-61
2022/04/24 02:17:56;;;;;;;8.95;5.32;;;;;;;;;;5033672;28;20104;-60
2022/04/24 02:20:23;;;;;;;9.63;5.80;;;;;;;;;;5033371;28;20021;-62
2022/04/24 02:22:49;;;;;;;8.65;5.47;;;;;;;;;;5033056;28;20038;-61
2022/04/24 02:25:15;;;;;;;10.82;6.30;;;;;;;;;;5033788;28;20040;-61
2022/04/24 02:27:41;;;;;;;11.52;6.07;;;;;;;;;;5033493;28;20090;-61
2022/04/24 02:30:07;;;;;;;10.25;5.70;;;;;;;;;;5033320;28;20049;-61
2022/04/24 02:32:33;;;;;;;9.07;5.22;;;;;;;;;;5033322;28;20037;-60
2022/04/24 02:34:59;;;;;;;13.38;5.53;;;;;;;;;;5033179;28;20036;-61
2022/04/24 02:37:25;;;;;;;13.15;6.30;;;;;;;;;;5033476;28;20372;-61
2022/04/24 02:39:51;;;;;;;14.13;5.57;;;;;;;;;;5033800;28;20033;-60
2022/04/24 02:42:16;;;;;;;9.98;5.68;;;;;;;;;;5033759;28;20033;-61
2022/04/24 02:44:42;;;;;;;10.85;5.82;;;;;;;;;;5033684;28;20022;-61
2022/04/24 02:47:07;;;;;;;10.75;5.40;;;;;;;;;;5033295;28;20478;-61
2022/04/24 02:49:33;;;;;;;14.95;5.60;;;;;;;;;;5033622;28;20025;-61
2022/04/24 02:51:58;;;;;;;11.07;5.75;;;;;;;;;;5033453;28;20052;-61
2022/04/24 02:54:24;;;;;;;14.32;6.13;;;;;;;;;;5033552;28;20029;-61
2022/04/24 02:56:49;;;;;;;10.32;5.22;;;;;;;;;;5033086;28;20029;-61
2022/04/24 02:59:16;;;;;;;13.23;6.47;;;;;;;;;;5032779;28;20077;-61
2022/04/24 03:01:42;;;;;;;10.38;5.65;;;;;;;;;;5032458;28;20455;-61
2022/04/24 03:04:08;;;;;;;10.38;5.65;;;;;;;;;;5032708;28;20494;-61
2022/04/24 03:06:33;;;;;;;14.10;5.72;;;;;;;;;;5032373;28;20026;-61
2022/04/24 03:08:59;;;;;;;11.13;6.57;;;;;;;;;;5033346;28;20394;-60
2022/04/24 03:11:25;;;;;;;8.80;5.45;;;;;;;;;;5033169;28;20029;-60
2022/04/24 03:13:51;;;;;;;8.35;5.78;;;;;;;;;;5033054;28;20474;-59
2022/04/24 03:16:16;;;;;;;12.52;5.70;;;;;;;;;;5032926;28;20036;-60
2022/04/24 03:18:42;;;;;;;9.68;5.47;;;;;;;;;;5033062;28;20032;-60
2022/04/24 03:21:08;;;;;;;7.60;4.97;;;;;;;;;;5032504;28;20418;-59
2022/04/24 03:23:33;;;;;;;10.48;5.65;;;;;;;;;;5032576;28;20048;-60
2022/04/24 03:25:59;;;;;;;10.02;6.30;;;;;;;;;;5032784;28;20053;-61
2022/04/24 03:28:24;;;;;;;12.85;6.22;;;;;;;;;;5032694;28;20048;-60
2022/04/24 03:30:50;;;;;;;12.52;6.70;;;;;;;;;;5031487;28;20022;-61
2022/04/24 03:33:15;;;;;;;12.18;6.95;;;;;;;;;;5032360;28;20029;-61
2022/04/24 03:35:41;;;;;;;12.05;6.60;;;;;;;;;;5031825;28;20026;-60
2022/04/24 03:38:06;;;;;;;14.98;8.15;;;;;;;;;;5032328;28;20057;-60
2022/04/24 03:40:32;;;;;;;13.32;6.95;;;;;;;;;;5032720;28;20029;-60
2022/04/24 03:42:59;;;;;;;12.25;6.95;;;;;;;;;;5032477;28;20954;-61
2022/04/24 03:45:24;;;;;;;11.23;7.05;;;;;;;;;;5032618;28;20061;-61
2022/04/24 03:47:51;;;;;;;9.50;6.93;;;;;;;;;;5032359;28;20029;-60
2022/04/24 03:50:19;;;;;;;14.27;8.73;;;;;;;;;;5032304;28;20029;-60
2022/04/24 03:52:44;;;;;;;15.55;8.45;;;;;;;;;;5032578;28;20101;-60
2022/04/24 03:55:10;;;;;;;13.02;7.65;;;;;;;;;;5032646;28;20133;-60
2022/04/24 03:57:35;;;;;;;13.73;8.02;;;;;;;;;;5032115;28;20457;-60
2022/04/24 04:00:01;;;;;;;15.52;9.07;;;;;;;;;;5031756;28;20356;-61
2022/04/24 04:02:26;;;;;;;11.95;8.35;;;;;;;;;;5031687;28;20109;-61
2022/04/24 04:04:52;;;;;;;13.77;8.95;;;;;;;;;;5031578;28;20105;-61
2022/04/24 04:07:18;;;;;;;13.95;8.65;;;;;;;;;;5031884;28;20104;-61
2022/04/24 04:09:43;;;;;;;17.15;9.68;;;;;;;;;;5032260;28;20057;-61
2022/04/24 04:12:10;;;;;;;14.35;8.27;;;;;;;;;;5032249;28;20053;-61
2022/04/24 04:14:36;;;;;;;15.73;8.68;;;;;;;;;;5032207;28;20475;-61
2022/04/24 04:17:02;;;;;;;17.65;9.82;;;;;;;;;;5032059;28;20014;-61
2022/04/24 04:19:28;;;;;;;17.52;9.60;;;;;;;;;;5032038;28;20041;-61
2022/04/24 04:21:53;;;;;;;15.05;9.15;;;;;;;;;;5032020;28;20071;-61
2022/04/24 04:24:19;;;;;;;14.98;9.40;;;;;;;;;;5031865;28;20055;-60
2022/04/24 04:26:44;;;;;;;15.93;9.88;;;;;;;;;;5031952;28;20434;-61
2022/04/24 04:29:10;;;;;;;16.10;10.32;;;;;;;;;;5031427;28;20107;-61
2022/04/24 04:31:35;;;;;;;18.42;9.70;;;;;;;;;;5031359;28;20021;-60
2022/04/24 04:34:01;;;;;;;18.20;10.38;;;;;;;;;;5031251;28;20470;-60
2022/04/24 04:36:27;;;;;;;16.05;10.60;;;;;;;;;;5031627;28;20029;-60
2022/04/24 04:38:53;;;;;;;19.95;11.32;;;;;;;;;;5031747;28;20025;-59
2022/04/24 04:41:18;;;;;;;18.08;11.00;;;;;;;;;;5032823;28;20108;-60
2022/04/24 04:43:44;;;;;;;15.82;9.48;;;;;;;;;;5017752;28;20094;-60
2022/04/24 04:46:09;;;;;;;16.73;10.52;;;;;;;;;;5035236;28;20039;-60
2022/04/24 04:48:34;;;;;;;21.40;11.48;;;;;;;;;;5035212;28;20025;-60
2022/04/24 04:51:00;;;;;;;15.57;10.25;;;;;;;;;;5035276;28;20033;-60
2022/04/24 04:53:26;;;;;;;19.60;11.15;;;;;;;;;;5035416;28;20068;-61
2022/04/24 04:55:51;;;;;;;20.60;11.63;;;;;;;;;;5035771;28;20037;-61
2022/04/24 04:58:17;;;;;;;22.58;12.20;;;;;;;;;;5018019;28;20113;-62
2022/04/24 05:00:42;;;;;;;17.23;10.35;;;;;;;;;;5035663;28;20025;-61
2022/04/24 05:03:08;;;;;;;16.63;9.80;;;;;;;;;;5035327;28;20029;-61
2022/04/24 05:05:34;;;;;;;17.88;10.52;;;;;;;;;;5035523;28;20030;-61
2022/04/24 05:08:00;;;;;;;17.67;9.23;;;;;;;;;;5035616;28;20025;-61
2022/04/24 05:10:25;;;;;;;16.73;8.68;;;;;;;;;;5035665;28;20521;-61
2022/04/24 05:12:51;;;;;;;13.57;8.85;;;;;;;;;;5035218;28;20438;-61
2022/04/24 05:15:17;;;;;;;19.80;9.00;;;;;;;;;;5034857;28;20355;-59
2022/04/24 05:17:43;;;;;;;19.52;9.50;;;;;;;;;;5034330;28;20021;-60
2022/04/24 05:20:10;;;;;;;13.98;8.52;;;;;;;;;;5034600;28;20050;-59
2022/04/24 05:22:37;;;;;;;14.40;8.57;;;;;;;;;;5034697;28;20506;-60
2022/04/24 05:25:04;;;;;;;14.20;8.13;;;;;;;;;;5035336;28;20025;-60
2022/04/24 05:27:30;;;;;;;15.60;8.75;;;;;;;;;;5035234;28;20021;-60
2022/04/24 05:29:56;;;;;;;17.23;8.48;;;;;;;;;;5035253;28;20083;-60
2022/04/24 05:32:21;;;;;;;16.00;8.70;;;;;;;;;;5034920;28;20074;-60
2022/04/24 05:34:47;;;;;;;14.98;8.90;;;;;;;;;;5034978;28;20029;-60
2022/04/24 05:37:12;;;;;;;15.07;7.82;;;;;;;;;;5035140;28;20120;-60
2022/04/24 05:39:38;;;;;;;15.27;8.73;;;;;;;;;;5035019;28;20509;-60
2022/04/24 05:42:04;;;;;;;15.55;8.60;;;;;;;;;;5035024;28;20029;-60
2022/04/24 05:44:30;;;;;;;15.20;8.70;;;;;;;;;;5034415;28;20075;-60
2022/04/24 05:46:55;;;;;;;10.88;7.82;;;;;;;;;;5033942;28;20030;-60
2022/04/24 05:49:21;;;;;;;12.98;8.30;;;;;;;;;;5034124;28;20022;-60
2022/04/24 05:51:46;;;;;;;13.90;7.97;;;;;;;;;;5034076;28;20084;-60
2022/04/24 05:54:12;;;;;;;13.75;8.32;;;;;;;;;;5033798;28;20057;-60
2022/04/24 05:56:41;;;;;;;16.70;8.40;;;;;;;;;;5034479;28;20470;-60
2022/04/24 05:59:08;;;;;;;14.38;8.13;;;;;;;;;;5034630;28;20035;-60
2022/04/24 06:01:34;;;;;;;13.13;7.70;;;;;;;;;;5034218;28;20033;-60
2022/04/24 06:03:59;;;;;;;12.50;8.60;;;;;;;;;;5034441;28;20025;-61
2022/04/24 06:06:25;;;;;;;17.23;8.93;;;;;;;;;;5034431;28;20083;-60
2022/04/24 06:08:50;;;;;;;15.52;9.52;;;;;;;;;;5034455;28;20033;-61
2022/04/24 06:11:17;;;;;;;15.27;8.45;;;;;;;;;;5034319;28;20099;-60
2022/04/24 06:13:42;;;;;;;15.35;8.10;;;;;;;;;;5033712;28;20152;-61
2022/04/24 06:16:08;;;;;;;15.13;7.93;;;;;;;;;;5025442;28;20081;-61
2022/04/24 06:18:33;;;;;;;13.68;8.15;;;;;;;;;;5013929;28;20490;-60
2022/04/24 06:20:59;;;;;;;13.52;7.35;;;;;;;;;;5013678;28;20029;-60
2022/04/24 06:23:27;;;;;;;15.00;7.80;;;;;;;;;;5034454;28;20152;-61
2022/04/24 06:25:52;;;;;;;11.43;6.85;;;;;;;;;;5053990;28;20036;-61
2022/04/24 06:28:18;;;;;;;10.57;7.30;;;;;;;;;;5051754;28;20041;-60
2022/04/24 06:30:43;;;;;;;14.63;7.60;;;;;;;;;;5014152;28;20018;-60
2022/04/24 06:33:10;;;;;;;13.25;7.10;;;;;;;;;;5014269;28;20041;-61
2022/04/24 06:35:37;;;;;;;11.82;6.93;;;;;;;;;;5013944;28;20048;-61
2022/04/24 06:38:04;;;;;;;10.82;6.82;;;;;;;;;;5014163;28;20034;-61
2022/04/24 06:40:30;;;;;;;11.93;6.10;;;;;;;;;;5013893;28;20029;-59
2022/04/24 06:43:04;;;;;;;11.10;7.38;;;;;;;;;;5013909;28;20057;-60
2022/04/24 06:45:43;;;;;;;11.75;6.20;;;;;;;;;;5013666;28;20157;-60
2022/04/24 06:48:11;;;;;;;12.18;6.95;;;;;;;;;;5014054;28;20130;-61
2022/04/24 06:50:41;;;;;;;9.75;5.95;;;;;;;;;;5013850;28;20459;-60
2022/04/24 06:53:09;;;;;;;10.90;6.20;;;;;;;;;;5013837;28;20030;-61
2022/04/24 06:55:36;;;;;;;12.40;6.05;;;;;;;;;;5013668;28;20034;-60
2022/04/24 06:58:03;;;;;;;9.27;5.85;;;;;;;;;;5013450;28;20117;-60
2022/04/24 07:00:30;;;;;;;13.65;6.32;;;;;;;;;;5013641;28;20056;-60
2022/04/24 07:02:56;;;;;;;9.20;5.07;;;;;;;;;;5013582;28;20026;-60
2022/04/24 07:05:25;;;;;;;11.77;5.85;;;;;;;;;;5013778;28;20044;-60
2022/04/24 07:07:51;;;;;;;8.43;5.55;;;;;;;;;;5013624;28;20037;-60
2022/04/24 07:10:16;;;;;;;9.20;4.97;;;;;;;;;;5013542;28;20030;-60
2022/04/24 07:12:50;;;;;;;12.43;5.18;;;;;;;;;;5012725;28;20339;-60
2022/04/24 07:15:17;;;;;;;9.60;5.22;;;;;;;;;;5012822;28;20033;-60
2022/04/24 07:17:43;;;;;;;11.00;4.68;;;;;;;;;;5012836;28;20022;-60
2022/04/24 07:20:14;;;;;;;10.18;5.18;;;;;;;;;;5012708;28;20414;-60
2022/04/24 07:22:44;;;;;;;11.77;5.05;;;;;;;;;;5021129;28;20032;-61
2022/04/24 07:25:12;;;;;;;9.32;5.05;;;;;;;;;;5053015;28;20067;-61
2022/04/24 07:27:37;;;;;;;9.43;4.78;;;;;;;;;;5034471;28;20037;-60
2022/04/24 07:30:03;;;;;;;7.95;4.85;;;;;;;;;;5052362;28;20032;-61
2022/04/24 07:32:38;;;;;;;7.35;5.00;;;;;;;;;;5052175;28;20029;-60
2022/04/24 07:35:04;;;;;;;12.40;5.63;;;;;;;;;;5052165;28;20282;-60
2022/04/24 07:37:32;;;;;;;9.98;5.13;;;;;;;;;;5051875;28;20035;-60
2022/04/24 07:39:58;;;;;;;8.65;5.20;;;;;;;;;;5031157;28;20025;-60
2022/04/24 07:42:24;;;;;;;9.52;5.22;;;;;;;;;;5032554;28;20028;-60
2022/04/24 07:44:51;;;;;;;10.45;5.00;;;;;;;;;;5032597;28;20031;-60
2022/04/24 07:47:16;;;;;;;9.15;4.13;;;;;;;;;;5032667;28;20056;-60
2022/04/24 07:49:42;;;;;;;9.10;4.32;;;;;;;;;;5032420;28;20470;-60
2022/04/24 07:52:08;;;;;;;10.43;4.45;;;;;;;;;;5032436;28;20112;-60
2022/04/24 07:54:33;;;;;;;8.00;4.60;;;;;;;;;;5032500;28;20021;-60
2022/04/24 07:56:59;;;;;;;9.32;4.78;;;;;;;;;;5032134;28;20028;-61
2022/04/24 07:59:25;;;;;;;8.65;5.03;;;;;;;;;;5032400;28;20033;-59
2022/04/24 08:01:51;;;;;;;12.13;5.40;;;;;;;;;;5031715;28;20440;-61
2022/04/24 08:04:17;;;;;;;10.40;4.90;;;;;;;;;;5031733;28;20040;-60
2022/04/24 08:06:43;;;;;;;10.82;4.80;;;;;;;;;;5031603;28;20029;-60
2022/04/24 08:09:08;;;;;;;15.32;4.95;;;;;;;;;;5031348;28;20049;-60
2022/04/24 08:11:34;;;;;;;9.55;4.47;;;;;;;;;;5032112;28;20030;-60
2022/04/24 08:13:59;;;;;;;11.43;5.25;;;;;;;;;;5032241;28;20025;-60
2022/04/24 08:16:26;;;;;;;9.15;4.10;;;;;;;;;;5031624;28;20048;-60
2022/04/24 08:18:52;;;;;;;8.93;4.85;;;;;;;;;;5032172;28;20539;-60
2022/04/24 08:21:18;;;;;;;9.73;4.80;;;;;;;;;;5032077;28;20374;-59
2022/04/24 08:23:44;;;;;;;8.10;4.50;;;;;;;;;;5044992;28;20029;-60
2022/04/24 08:26:10;;;;;;;12.27;4.60;;;;;;;;;;5051818;28;20396;-60
2022/04/24 08:28:36;;;;;;;12.13;5.18;;;;;;;;;;5022404;28;20033;-60
2022/04/24 08:31:02;;;;;;;8.93;4.93;;;;;;;;;;5020503;28;20483;-61
2022/04/24 08:33:28;;;;;;;8.88;5.22;;;;;;;;;;5020865;28;20052;-60
2022/04/24 08:35:53;;;;;;;9.68;5.43;;;;;;;;;;5022102;28;20544;-60
2022/04/24 08:38:19;;;;;;;9.35;5.38;;;;;;;;;;5020219;28;20153;-60
2022/04/24 08:40:46;;;;;;;8.57;4.90;;;;;;;;;;5021039;28;20029;-60
2022/04/24 08:43:15;;;;;;;9.43;4.80;;;;;;;;;;5021921;28;20490;-59
2022/04/24 08:45:42;;;;;;;9.15;4.93;;;;;;;;;;5019901;28;20029;-60
2022/04/24 08:48:08;;;;;;;9.70;4.78;;;;;;;;;;5021381;28;20033;-60
2022/04/24 08:50:33;;;;;;;9.27;4.60;;;;;;;;;;5021399;28;20026;-59
2022/04/24 08:53:00;;;;;;;10.05;4.15;;;;;;;;;;5020009;28;20033;-60
2022/04/24 08:55:28;;;;;;;10.35;3.83;;;;;;;;;;5020140;28;20026;-60
2022/04/24 08:57:53;;;;;;;8.40;4.07;;;;;;;;;;5021206;28;20459;-59
2022/04/24 09:00:20;;;;;;;9.35;4.40;;;;;;;;;;5021900;28;20040;-60
2022/04/24 09:02:47;;;;;;;7.03;3.75;;;;;;;;;;5020066;28;20030;-60
2022/04/24 09:05:13;;;;;;;6.53;3.75;;;;;;;;;;5020824;28;20028;-60
2022/04/24 09:07:39;;;;;;;9.55;3.60;;;;;;;;;;5021216;28;20069;-60
2022/04/24 09:10:11;;;;;;;6.93;3.90;;;;;;;;;;5019556;28;20053;-60
2022/04/24 09:12:38;;;;;;;6.20;3.60;;;;;;;;;;5035458;28;20040;-61
2022/04/24 09:15:05;;;;;;;8.32;4.05;;;;;;;;;;5021906;28;20054;-60
2022/04/24 09:17:33;;;;;;;8.07;3.65;;;;;;;;;;5035441;28;20049;-61
2022/04/24 09:20:00;;;;;;;6.35;3.53;;;;;;;;;;5020405;28;20390;-60
2022/04/24 09:22:25;;;;;;;7.18;3.85;;;;;;;;;;5021569;28;20076;-60
2022/04/24 09:24:54;;;;;;;9.57;4.07;;;;;;;;;;5021398;28;20030;-60
2022/04/24 09:27:27;;;;;;;6.93;3.70;;;;;;;;;;5021058;28;20108;-61
2022/04/24 09:29:55;;;;;;;9.50;3.97;;;;;;;;;;5023151;28;20588;-60
2022/04/24 09:32:23;;;;;;;8.13;3.55;;;;;;;;;;5023820;28;20029;-61
2022/04/24 09:34:48;;;;;;;7.65;3.40;;;;;;;;;;5032290;28;20082;-61
2022/04/24 09:37:14;;;;;;;7.47;3.78;;;;;;;;;;5036897;28;20026;-61
2022/04/24 09:39:40;;;;;;;6.18;3.65;;;;;;;;;;5035987;28;20021;-61
2022/04/24 09:42:08;;;;;;;7.50;3.80;;;;;;;;;;5035946;28;20032;-61
2022/04/24 09:44:39;;;;;;;12.88;4.10;;;;;;;;;;5031095;28;20029;-61
2022/04/24 09:47:06;;;;;;;10.68;4.18;;;;;;;;;;5024412;28;20448;-60
2022/04/24 09:49:39;;;;;;;7.85;3.70;;;;;;;;;;5023165;28;20378;-59
2022/04/24 09:52:08;;;;;;;6.85;3.53;;;;;;;;;;5022378;28;20084;-61
2022/04/24 09:54:34;;;;;;;6.28;3.45;;;;;;;;;;5025843;28;20119;-60
2022/04/24 09:57:02;;;;;;;8.73;3.40;;;;;;;;;;5034428;28;20026;-61
2022/04/24 09:59:28;;;;;;;6.18;3.40;;;;;;;;;;5034623;28;20060;-61
2022/04/24 10:01:54;;;;;;;7.15;3.70;;;;;;;;;;5033998;28;20471;-61
2022/04/24 10:04:20;;;;;;;6.13;3.10;;;;;;;;;;5034666;28;20025;-61
2022/04/24 10:06:47;;;;;;;6.85;3.20;;;;;;;;;;5033972;28;20034;-61
2022/04/24 10:09:13;;;;;;;8.35;3.75;;;;;;;;;;5034689;28;20053;-60
2022/04/24 10:11:39;;;;;;;6.07;3.25;;;;;;;;;;5034436;28;20030;-60
2022/04/24 10:14:10;;;;;;;6.88;3.28;;;;;;;;;;5034547;28;20474;-61
2022/04/24 10:17:05;;;;;;;5.93;2.97;;;;;;;;;;5034420;28;20392;-61
2022/04/24 10:19:40;;;;;;;5.47;3.20;;;;;;;;;;5021173;28;20041;-61
2022/04/24 10:22:35;;;;;;;6.38;3.35;;;;;;;;;;5033898;28;20045;-61
2022/04/24 10:25:02;;;;;;;5.28;2.60;;;;;;;;;;5014810;28;20394;-60
2022/04/24 10:27:37;;;;;;;7.00;2.80;;;;;;;;;;5014561;28;20025;-61
2022/04/24 10:30:02;;;;;;;5.57;3.05;;;;;;;;;;5031192;28;20017;-60
2022/04/24 10:32:32;;;;;;;7.78;2.97;;;;;;;;;;5053594;28;20029;-61
2022/04/24 10:34:59;;;;;;;8.60;3.00;;;;;;;;;;5054030;28;20039;-60
2022/04/24 10:37:29;;;;;;;4.40;2.60;;;;;;;;;;5053746;28;20033;-60
2022/04/24 10:39:57;;;;;;;3.58;2.20;;;;;;;;;;5053597;28;20033;-60
2022/04/24 10:42:33;;;;;;;7.65;2.13;;;;;;;;;;5050329;28;20120;-60
2022/04/24 10:45:13;;;;;;;5.78;2.55;;;;;;;;;;5033989;28;20029;-60
2022/04/24 10:47:42;;;;;;;;;;;;;;;;;;5034370;28;20025;-60
2022/04/24 10:50:09;;;;;;;6.38;2.30;;;;;;;;;;5033727;28;20342;-60
2022/04/24 10:52:39;;;;;;;4.80;2.40;;;;;;;;;;5033846;28;20067;-60
2022/04/24 10:55:19;;;;;;;5.38;2.45;;;;;;;;;;5033649;28;20098;-61
2022/04/24 10:57:47;;;;;;;3.85;2.60;;;;;;;;;;5033451;28;20029;-61
2022/04/24 11:00:19;;;;;;;6.18;2.95;;;;;;;;;;5033494;28;20501;-61
2022/04/24 11:02:47;;;;;;;15.55;3.20;;;;;;;;;;5033635;28;20037;-60
2022/04/24 11:05:21;;;;;;;4.60;2.80;;;;;;;;;;5033360;28;20535;-60
2022/04/24 11:07:47;;;;;;;4.07;2.10;;;;;;;;;;5033525;28;20037;-60
2022/04/24 11:10:17;;;;;;;4.22;2.22;;;;;;;;;;5032825;28;20087;-61
2022/04/24 11:12:43;;;;;;;3.80;2.67;;;;;;;;;;5033469;28;20033;-60
2022/04/24 11:15:11;;;;;;;8.32;3.15;;;;;;;;;;5032623;28;20033;-60
2022/04/24 11:17:37;;;;;;;7.07;2.47;;;;;;;;;;5029341;28;20418;-60
2022/04/24 11:20:09;;;;;;;5.43;2.50;;;;;;;;;;5021116;28;20034;-61
2022/04/24 11:22:53;;;;;;;9.68;2.20;;;;;;;;;;5032168;28;20037;-60
2022/04/24 11:25:22;;;;;;;5.85;2.28;;;;;;;;;;5033148;28;20025;-60
2022/04/24 11:27:54;;;;;;;4.97;2.45;;;;;;;;;;5033057;28;20104;-60
2022/04/24 11:30:22;;;;;;;3.80;2.50;;;;;;;;;;5033006;28;20103;-60
2022/04/24 11:33:14;;;;;;;5.75;2.45;;;;;;;;;;5026136;28;20123;-60
2022/04/24 11:35:40;;;;;;;4.60;2.47;;;;;;;;;;5016982;28;20124;-60
2022/04/24 11:38:08;;;;;;;4.80;2.47;;;;;;;;;;5021041;28;20539;-60
2022/04/24 11:40:42;;;;;;;5.07;2.40;;;;;;;;;;5022543;28;20429;-60
2022/04/24 11:43:07;;;;;;;6.43;2.60;;;;;;;;;;5022701;28;20105;-60
2022/04/24 11:51:15;;;;;;;5.43;2.20;;;;;;;;;;5012639;28;20368;-61
2022/04/24 11:53:42;;;;;;;3.80;2.22;;;;;;;;;;5012985;28;20030;-61
2022/04/24 11:56:09;;;;;;;4.10;2.50;;;;;;;;;;5012960;28;20022;-61
2022/04/24 11:58:36;;;;;;;6.45;2.35;;;;;;;;;;5012905;28;20026;-60
2022/04/24 12:01:07;;;;;;;5.10;2.28;;;;;;;;;;5012731;28;20455;-60
2022/04/24 12:03:34;;;;;;;5.82;2.50;;;;;;;;;;5012376;28;20041;-60
2022/04/24 12:06:02;;;;;;;3.40;2.20;;;;;;;;;;5012692;28;20072;-60
2022/04/24 12:08:49;;;;;;;4.55;2.28;;;;;;;;;;5012649;28;20022;-60
2022/04/24 12:11:30;;;;;;;3.97;2.33;;;;;;;;;;5021351;28;20017;-61
2022/04/24 12:14:06;;;;;;;4.88;2.40;;;;;;;;;;5032606;28;20097;-61
2022/04/24 12:16:32;;;;;;;6.45;2.55;;;;;;;;;;5031229;28;20087;-61
2022/04/24 12:18:59;;;;;;;5.35;2.70;;;;;;;;;;5032048;28;20021;-61
2022/04/24 12:21:26;;;;;;;5.00;2.33;;;;;;;;;;5032005;28;20410;-61
2022/04/24 12:23:53;;;;;;;5.43;2.30;;;;;;;;;;5032198;28;20026;-61
2022/04/24 12:26:20;;;;;;;6.18;2.42;;;;;;;;;;5032218;28;20029;-61
2022/04/24 12:28:47;;;;;;;5.25;2.63;;;;;;;;;;5032269;28;20037;-61
2022/04/24 12:31:27;;;;;;;4.70;2.70;;;;;;;;;;5032324;28;20060;-61
2022/04/24 12:33:54;;;;;;;8.27;3.80;;;;;;;;;;5021930;28;20026;-61
2022/04/24 12:36:21;;;;;;;8.45;3.70;;;;;;;;;;5012357;28;20065;-62
2022/04/24 12:38:56;;;;;;;9.73;4.03;;;;;;;;;;5017841;28;20026;-62
2022/04/24 12:41:28;;;;;;;10.82;3.92;;;;;;;;;;5020324;28;20041;-60
2022/04/24 12:43:58;;;;;;;9.48;3.90;;;;;;;;;;5012319;28;20033;-61
2022/04/24 12:46:24;;;;;;;15.90;4.00;;;;;;;;;;5011975;28;20497;-60
2022/04/24 12:48:54;;;;;;;7.35;3.85;;;;;;;;;;5012134;28;20042;-60
2022/04/24 12:51:23;;;;;;;8.88;4.15;;;;;;;;;;5012322;28;20030;-60
2022/04/24 12:53:55;;;;;;;8.68;3.80;;;;;;;;;;5012351;28;20022;-61
2022/04/24 12:56:21;;;;;;;8.48;3.03;;;;;;;;;;5012110;28;20022;-61
2022/04/24 12:58:47;;;;;;;7.55;3.13;;;;;;;;;;5021750;28;20032;-60
2022/04/24 13:01:13;;;;;;;5.28;3.28;;;;;;;;;;5026885;28;20124;-60
2022/04/24 13:03:40;;;;;;;7.15;3.72;;;;;;;;;;5033979;28;20112;-60
2022/04/24 13:06:10;;;;;;;7.97;3.70;;;;;;;;;;5035734;28;20109;-60
2022/04/24 13:08:37;;;;;;;11.23;3.80;;;;;;;;;;5035450;28;20029;-60
2022/04/24 13:11:03;;;;;;;9.63;3.80;;;;;;;;;;5035719;28;20040;-60
2022/04/24 13:13:29;;;;;;;6.82;3.50;;;;;;;;;;5035844;28;20060;-60
2022/04/24 13:18:43;;;;;;;9.13;3.80;;;;;;;;;;4955270;29;20072;-60
2022/04/24 13:21:09;;;;;;;7.97;3.55;;;;;;;;;;4944409;29;20436;-61
2022/04/24 13:23:35;;;;;;;7.55;3.72;;;;;;;;;;4947236;28;20481;-61
2022/04/24 13:26:02;;;;;;;8.50;4.40;;;;;;;;;;4949511;29;20035;-60
2022/04/24 13:28:28;;;;;;;9.65;4.85;;;;;;;;;;4941586;29;20509;-60
2022/04/24 13:30:54;;;;;;;11.98;4.03;;;;;;;;;;4944663;29;20720;-60
2022/04/24 13:33:20;;;;;;;7.65;3.78;;;;;;;;;;4948621;29;20027;-60
2022/04/24 13:35:46;;;;;;;6.43;3.95;;;;;;;;;;4948234;29;20039;-60
2022/04/24 13:38:17;;;;;;;10.27;4.85;;;;;;;;;;4943846;29;20209;-60
2022/04/24 13:40:46;;;;;;;6.30;3.90;;;;;;;;;;4943478;29;20464;-60
2022/04/24 13:43:12;;;;;;;10.55;5.00;;;;;;;;;;4944032;29;20148;-60
2022/04/24 13:45:38;;;;;;;11.40;5.63;;;;;;;;;;4941236;29;20584;-60
2022/04/24 13:48:05;;;;;;;9.25;4.25;;;;;;;;;;4945843;29;20489;-61
2022/04/24 13:50:32;;;;;;;7.53;4.20;;;;;;;;;;4944250;29;20035;-60
2022/04/24 13:52:59;;;;;;;10.07;4.40;;;;;;;;;;4945850;29;20155;-60
2022/04/24 13:55:26;;;;;;;14.52;10.82;;;;;;;;;;4973784;28;20049;-60
2022/04/24 13:57:53;;;;;;;7.45;4.00;;;;;;;;;;5024651;28;20026;-61
2022/04/24 14:00:24;;;;;;;6.93;4.45;;;;;;;;;;5022623;28;20026;-60
2022/04/24 14:02:51;;;;;;;9.82;4.53;;;;;;;;;;5031770;28;20025;-60
2022/04/24 14:05:17;;;;;;;7.85;4.07;;;;;;;;;;5034771;28;20394;-61
2022/04/24 14:07:44;;;;;;;10.07;3.88;;;;;;;;;;5034630;28;20029;-61
2022/04/24 14:10:10;;;;;;;6.32;3.90;;;;;;;;;;5034616;28;20029;-61
2022/04/24 14:12:36;;;;;;;8.75;4.05;;;;;;;;;;5034040;28;20028;-60
2022/04/24 14:15:05;;;;;;;47.40;26.27;;;;;;;;;;5033645;28;20028;-61
2022/04/24 14:17:30;;;;;;;28.27;19.15;;;;;;;;;;5033874;28;20090;-61
2022/04/24 14:19:57;;;;;;;8.40;5.20;;;;;;;;;;5034529;28;20068;-60
2022/04/24 14:22:22;;;;;;;6.40;3.60;;;;;;;;;;5033838;28;20047;-61
2022/04/24 14:24:48;;;;;;;10.85;4.28;;;;;;;;;;5033839;28;20536;-60
2022/04/24 14:27:15;;;;;;;7.15;3.80;;;;;;;;;;5034567;28;20074;-60
2022/04/24 14:29:40;;;;;;;8.88;3.90;;;;;;;;;;5034053;28;20494;-60
2022/04/24 14:32:07;;;;;;;8.32;3.67;;;;;;;;;;5034227;28;20033;-61
2022/04/24 14:34:34;;;;;;;6.93;3.20;;;;;;;;;;5034092;28;20108;-60
2022/04/24 14:37:00;;;;;;;9.25;3.83;;;;;;;;;;5034111;28;20109;-61
2022/04/24 14:39:27;;;;;;;17.13;9.02;;;;;;;;;;5034261;28;20024;-61
2022/04/24 14:41:53;;;;;;;48.17;25.50;;;;;;;;;;5033839;28;20025;-60
2022/04/24 14:44:19;;;;;;;63.38;30.80;;;;;;;;;;5033667;28;20112;-60